Time;durP1;ratioP1;P1;durP2;ratioP2;P2;SDS_P1;SDS_P2;PMS_P1;PMS_P2;Temp;Humidity;BMP_temperature;BMP_pressure;BME280_temperature;BME280_humidity;BME280_pressure;Samples;Min_cycle;Max_cycle;Signal;HPM_P1;HPM_P2
2022/01/28 00:00:28;;;;;;;6.75;5.65;;;4.30;99.90;;;;;;5036274;28;20025;-72
2022/01/28 00:03:05;;;;;;;7.43;5.88;;;4.30;99.90;;;;;;5036565;28;20030;-72
2022/01/28 00:05:31;;;;;;;6.95;6.15;;;4.40;99.90;;;;;;5036259;28;20029;-71
2022/01/28 00:07:57;;;;;;;7.38;6.30;;;4.40;99.90;;;;;;5036530;28;20034;-73
2022/01/28 00:10:24;;;;;;;7.18;6.45;;;4.40;99.90;;;;;;5034554;28;20026;-73
2022/01/28 00:13:40;;;;;;;6.63;6.00;;;4.40;99.90;;;;;;5031247;28;20497;-73
2022/01/28 00:18:54;;;;;;;8.77;5.90;;;4.40;99.90;;;;;;5021172;28;20022;-73
2022/01/28 00:38:02;;;;;;;6.18;5.47;;;4.50;99.90;;;;;;5020930;28;20036;-71
2022/01/28 00:40:29;;;;;;;8.15;6.03;;;4.50;99.90;;;;;;5018847;28;20034;-71
2022/01/28 00:42:55;;;;;;;6.22;5.60;;;4.50;99.90;;;;;;5018567;28;20034;-71
2022/01/28 00:45:21;;;;;;;8.13;5.10;;;4.50;99.90;;;;;;5018447;28;20089;-73
2022/01/28 00:47:47;;;;;;;5.80;5.30;;;4.50;99.90;;;;;;5020911;28;20018;-73
2022/01/28 00:50:14;;;;;;;5.20;4.70;;;4.60;99.90;;;;;;5017258;28;20485;-73
2022/01/28 00:52:39;;;;;;;5.75;4.90;;;4.60;99.90;;;;;;5018712;28;20030;-72
2022/01/28 00:55:05;;;;;;;5.82;5.30;;;4.60;99.90;;;;;;5017603;28;20414;-73
2022/01/28 00:57:31;;;;;;;5.93;4.85;;;4.60;99.90;;;;;;5016943;28;20026;-72
2022/01/28 00:59:56;;;;;;;4.35;3.88;;;4.60;99.90;;;;;;5017896;28;20053;-72
2022/01/28 01:02:22;;;;;;;5.90;4.68;;;4.60;99.90;;;;;;5017456;28;20474;-71
2022/01/28 01:04:48;;;;;;;4.85;4.05;;;4.70;99.90;;;;;;5016555;28;20112;-72
2022/01/28 01:07:13;;;;;;;5.45;4.28;;;4.70;99.90;;;;;;5017766;28;20029;-72
2022/01/28 01:09:39;;;;;;;4.60;4.13;;;4.70;99.90;;;;;;5017856;28;20025;-72
2022/01/28 01:12:05;;;;;;;6.55;4.38;;;4.60;99.90;;;;;;5017432;28;20470;-73
2022/01/28 01:14:31;;;;;;;4.82;4.05;;;4.60;99.90;;;;;;5017934;28;20034;-72
2022/01/28 01:17:19;;;;;;;6.47;5.00;;;4.50;99.90;;;;;;5017251;28;20399;-72
2022/01/28 01:19:49;;;;;;;4.15;3.75;;;4.60;99.90;;;;;;5017882;28;20540;-72
2022/01/28 01:22:14;;;;;;;5.53;4.45;;;4.50;99.90;;;;;;5017522;28;20084;-73
2022/01/28 01:24:49;;;;;;;5.68;4.70;;;4.50;99.90;;;;;;5016159;28;20029;-72
2022/01/28 01:27:15;;;;;;;5.30;4.80;;;4.40;99.90;;;;;;5026622;28;20045;-71
2022/01/28 01:29:45;;;;;;;5.03;4.53;;;4.50;99.90;;;;;;5024381;28;20026;-74
2022/01/28 01:32:17;;;;;;;6.70;5.27;;;4.40;99.90;;;;;;5019984;28;20089;-72
2022/01/28 01:34:43;;;;;;;5.75;4.70;;;4.30;99.90;;;;;;5022298;28;20064;-72
2022/01/28 01:37:09;;;;;;;7.68;5.15;;;4.30;99.90;;;;;;5025241;28;20382;-72
2022/01/28 01:39:36;;;;;;;7.22;4.90;;;4.30;99.90;;;;;;5022887;23;20073;-79
2022/01/28 01:42:19;;;;;;;5.32;4.82;;;4.20;99.90;;;;;;5013773;28;20030;-79
2022/01/28 01:53:01;;;;;;;7.05;5.43;;;4.00;99.90;;;;;;5037182;28;20041;-77
2022/01/28 01:55:27;;;;;;;7.93;5.90;;;3.90;99.90;;;;;;5035973;28;20021;-77
2022/01/28 01:57:53;;;;;;;6.18;5.05;;;3.80;99.90;;;;;;5033126;28;20036;-77
2022/01/28 02:00:19;;;;;;;5.45;4.18;;;3.80;99.90;;;;;;5021090;28;20017;-77
2022/01/28 02:02:44;;;;;;;5.28;4.78;;;3.90;99.90;;;;;;5018447;28;20037;-78
2022/01/28 02:05:10;;;;;;;5.82;5.22;;;3.90;99.90;;;;;;5017892;28;20045;-77
2022/01/28 02:07:39;;;;;;;8.07;5.65;;;3.90;99.90;;;;;;5015994;28;20022;-77
2022/01/28 02:10:05;;;;;;;6.78;5.80;;;3.90;99.90;;;;;;5015284;28;20133;-77
2022/01/28 02:12:49;;;;;;;7.22;5.65;;;3.90;99.90;;;;;;5014579;28;20018;-78
2022/01/28 02:15:15;;;;;;;6.05;5.45;;;3.80;99.90;;;;;;5013479;28;20069;-78
2022/01/28 02:17:41;;;;;;;7.90;5.63;;;3.80;99.90;;;;;;5015376;28;20030;-77
2022/01/28 02:20:35;;;;;;;8.85;6.97;;;3.70;99.90;;;;;;5014339;28;20500;-77
2022/01/28 02:23:02;;;;;;;7.20;5.72;;;3.70;99.90;;;;;;5015382;28;20028;-77
2022/01/28 02:25:31;;;;;;;5.72;5.13;;;3.60;99.90;;;;;;5015082;28;20018;-77
2022/01/28 02:28:01;;;;;;;7.82;6.32;;;3.50;99.90;;;;;;5014506;28;20014;-78
2022/01/28 02:30:27;;;;;;;6.03;5.20;;;3.50;99.90;;;;;;5030347;28;20033;-77
2022/01/28 02:32:58;;;;;;;7.18;5.78;;;3.40;99.90;;;;;;5022932;28;20034;-77
2022/01/28 02:35:23;;;;;;;;;;;3.40;99.90;;;;;;5024478;28;20029;-77
2022/01/28 02:37:49;;;;;;;6.55;5.43;;;3.50;99.90;;;;;;5022692;28;19997;-77
2022/01/28 02:40:15;;;;;;;6.78;5.72;;;3.40;99.90;;;;;;5014267;28;20478;-77
2022/01/28 02:43:01;;;;;;;6.10;5.50;;;3.40;99.90;;;;;;5015206;28;20022;-77
2022/01/28 02:45:38;;;;;;;7.55;5.90;;;3.40;99.90;;;;;;5013810;28;20650;-77
2022/01/28 02:48:08;;;;;;;6.68;5.50;;;3.40;99.90;;;;;;5013847;28;20120;-77
2022/01/28 02:50:48;;;;;;;7.13;5.10;;;3.40;99.90;;;;;;5013934;28;20018;-77
2022/01/28 02:53:22;;;;;;;6.75;5.50;;;3.40;99.90;;;;;;5013172;28;20026;-77
2022/01/28 02:55:48;;;;;;;7.78;5.30;;;3.30;99.90;;;;;;5013511;28;20025;-77
2022/01/28 02:58:19;;;;;;;5.90;5.32;;;3.20;99.90;;;;;;5012548;28;20449;-77
2022/01/28 03:00:47;;;;;;;7.80;5.85;;;3.20;99.90;;;;;;5012450;28;20030;-78
2022/01/28 03:03:14;;;;;;;5.60;5.07;;;3.20;99.90;;;;;;5013359;28;20084;-77
2022/01/28 03:05:40;;;;;;;6.90;5.05;;;3.10;99.90;;;;;;5012538;28;20048;-77
2022/01/28 03:08:06;;;;;;;7.88;5.25;;;3.10;99.90;;;;;;5014214;28;20076;-77
2022/01/28 03:15:51;;;;;;;7.72;5.97;;;3.20;99.90;;;;;;5017175;28;20116;-77
2022/01/28 03:18:22;;;;;;;8.80;5.88;;;3.30;99.90;;;;;;5018740;28;20041;-77
2022/01/28 03:23:19;;;;;;;5.43;4.75;;;3.40;99.90;;;;;;5017216;28;20101;-78
2022/01/28 03:25:46;;;;;;;7.15;5.35;;;3.40;99.90;;;;;;5020657;28;20414;-78
2022/01/28 03:28:14;;;;;;;6.60;5.40;;;3.40;99.90;;;;;;5026187;28;20041;-77
2022/01/28 03:30:39;;;;;;;6.63;4.93;;;3.40;99.90;;;;;;5018643;28;20501;-77
2022/01/28 03:33:05;;;;;;;6.88;5.32;;;3.40;99.90;;;;;;5016507;28;20052;-77
2022/01/28 03:35:33;;;;;;;6.70;5.13;;;3.30;99.90;;;;;;5015884;28;20029;-77
2022/01/28 03:38:00;;;;;;;7.97;5.22;;;3.20;99.90;;;;;;5017624;28;20470;-77
2022/01/28 03:40:28;;;;;;;9.77;5.38;;;3.40;99.90;;;;;;5017068;28;20064;-77
2022/01/28 03:42:53;;;;;;;5.05;4.57;;;3.40;99.90;;;;;;5018364;28;20045;-76
2022/01/28 03:45:19;;;;;;;8.35;5.47;;;3.50;99.90;;;;;;5018316;28;20026;-76
2022/01/28 03:47:44;;;;;;;7.30;5.03;;;3.70;99.90;;;;;;5017971;28;20076;-77
2022/01/28 03:50:10;;;;;;;6.10;4.75;;;3.70;99.90;;;;;;5016827;28;20462;-76
2022/01/28 03:52:36;;;;;;;8.27;5.95;;;3.80;99.90;;;;;;5016746;28;20042;-78
2022/01/28 03:55:02;;;;;;;8.15;5.32;;;3.80;99.90;;;;;;5017191;28;20366;-76
2022/01/28 03:57:28;;;;;;;6.28;5.07;;;3.80;99.90;;;;;;5017214;28;20029;-75
2022/01/28 03:59:53;;;;;;;6.60;5.53;;;3.90;99.90;;;;;;5017885;28;20401;-77
2022/01/28 04:02:25;;;;;;;6.60;5.60;;;3.90;99.90;;;;;;5017196;28;20084;-77
2022/01/28 04:12:51;;;;;;;6.93;5.15;;;4.00;99.90;;;;;;5017426;28;20500;-76
2022/01/28 04:15:34;;;;;;;6.75;5.53;;;4.00;99.90;;;;;;5016884;28;20021;-77
2022/01/28 04:18:00;;;;;;;6.78;5.82;;;3.90;99.90;;;;;;5015748;28;20030;-76
2022/01/28 04:20:25;;;;;;;6.55;5.28;;;3.90;99.90;;;;;;5015721;28;20037;-78
2022/01/28 04:22:51;;;;;;;6.57;5.47;;;3.90;99.90;;;;;;5017850;28;20026;-77
2022/01/28 04:25:17;;;;;;;6.65;5.22;;;3.80;99.90;;;;;;5016191;28;20144;-77
2022/01/28 04:27:42;;;;;;;8.23;5.15;;;3.80;99.90;;;;;;5016139;28;20017;-77
2022/01/28 04:30:08;;;;;;;5.80;5.20;;;3.80;99.90;;;;;;5017364;28;20044;-77
2022/01/28 04:32:35;;;;;;;6.80;5.50;;;3.80;99.90;;;;;;5015496;28;20137;-77
2022/01/28 04:35:01;;;;;;;8.25;5.22;;;3.70;99.90;;;;;;5016265;28;20018;-77
2022/01/28 04:39:59;;;;;;;7.18;6.05;;;3.70;99.90;;;;;;5017096;28;20046;-77
2022/01/28 04:48:35;;;;;;;7.95;5.35;;;3.60;99.90;;;;;;5020062;28;20036;-76
2022/01/28 04:50:42;;;;;;;8.25;5.57;;;3.50;99.90;;;;;;5032917;28;20034;-76
2022/01/28 05:01:09;;;;;;;9.38;5.50;;;3.40;99.90;;;;;;5022099;28;20394;-77
2022/01/28 05:03:49;;;;;;;8.50;6.18;;;3.40;99.90;;;;;;5017900;28;20026;-77
2022/01/28 05:06:44;;;;;;;11.75;6.47;;;3.40;99.90;;;;;;5017845;28;20033;-77
2022/01/28 05:09:44;;;;;;;8.52;6.28;;;3.30;99.90;;;;;;5016657;28;20092;-77
2022/01/28 05:23:18;;;;;;;10.68;6.15;;;3.20;99.90;;;;;;5016248;28;20026;-77
2022/01/28 05:28:11;;;;;;;13.07;7.38;;;3.20;99.90;;;;;;5016321;28;20049;-77
2022/01/28 05:30:36;;;;;;;8.50;6.38;;;3.20;99.90;;;;;;5015310;28;20072;-77
2022/01/28 05:33:02;;;;;;;9.52;6.68;;;3.20;99.90;;;;;;5016226;28;20034;-78
2022/01/28 05:35:27;;;;;;;10.52;7.22;;;3.10;99.90;;;;;;5014652;28;20027;-77
2022/01/28 05:37:53;;;;;;;10.90;7.28;;;3.10;99.90;;;;;;5015058;28;20026;-77
2022/01/28 05:40:18;;;;;;;10.85;7.43;;;3.10;99.90;;;;;;5015898;28;20493;-77
2022/01/28 05:42:44;;;;;;;8.60;6.75;;;3.20;99.90;;;;;;5017121;28;20113;-77
2022/01/28 05:45:10;;;;;;;6.93;6.22;;;3.10;99.90;;;;;;5016748;28;20042;-77
2022/01/28 05:47:36;;;;;;;8.35;6.60;;;3.10;99.90;;;;;;5015774;28;20088;-77
2022/01/28 05:50:04;;;;;;;11.00;7.00;;;3.10;99.90;;;;;;5014724;28;20060;-77
2022/01/28 05:52:31;;;;;;;11.35;6.75;;;3.00;99.90;;;;;;5016312;28;20018;-77
2022/01/28 05:54:57;;;;;;;9.57;7.57;;;3.10;99.90;;;;;;5016608;28;20146;-76
2022/01/28 05:57:22;;;;;;;13.43;7.30;;;3.00;99.90;;;;;;5017057;28;20034;-77
2022/01/28 05:59:48;;;;;;;10.32;7.32;;;3.00;99.90;;;;;;5023513;28;20030;-77
2022/01/28 06:02:13;;;;;;;8.68;7.00;;;3.10;99.90;;;;;;5031016;28;20030;-76
2022/01/28 06:04:39;;;;;;;10.77;6.13;;;3.10;99.90;;;;;;5025664;28;20029;-77
2022/01/28 06:07:05;;;;;;;10.20;6.18;;;3.10;99.90;;;;;;5019021;28;20030;-77
2022/01/28 06:09:30;;;;;;;8.60;6.68;;;3.20;99.90;;;;;;5016097;28;20054;-76
2022/01/28 06:11:57;;;;;;;8.30;6.45;;;3.20;99.90;;;;;;5019628;28;20029;-76
2022/01/28 06:14:23;;;;;;;8.02;6.25;;;3.10;99.90;;;;;;5019381;28;20034;-78
2022/01/28 06:16:48;;;;;;;10.85;6.20;;;3.10;99.90;;;;;;5022258;28;20030;-78
2022/01/28 06:19:14;;;;;;;9.63;7.13;;;3.10;99.90;;;;;;5031913;28;20034;-78
2022/01/28 06:21:39;;;;;;;11.55;6.22;;;3.20;99.90;;;;;;5033034;28;20025;-77
2022/01/28 06:24:05;;;;;;;9.07;6.70;;;3.20;99.90;;;;;;5030677;28;20030;-77
2022/01/28 06:26:31;;;;;;;8.43;5.63;;;3.20;99.90;;;;;;5028941;28;20084;-77
2022/01/28 06:28:56;;;;;;;11.27;7.65;;;3.10;99.90;;;;;;5022586;28;20044;-77
2022/01/28 06:31:22;;;;;;;7.75;5.97;;;3.10;99.90;;;;;;5019584;28;20057;-77
2022/01/28 06:33:49;;;;;;;11.68;6.85;;;3.20;99.90;;;;;;5020550;28;20026;-76
2022/01/28 06:36:14;;;;;;;11.77;7.00;;;3.20;99.90;;;;;;5014753;28;20022;-78
2022/01/28 06:38:40;;;;;;;11.80;6.57;;;3.30;99.90;;;;;;5016680;28;20046;-77
2022/01/28 06:41:05;;;;;;;10.10;7.00;;;3.20;99.90;;;;;;5018053;28;20553;-77
2022/01/28 06:43:31;;;;;;;14.40;8.20;;;3.20;99.90;;;;;;5016271;28;20390;-78
2022/01/28 06:45:57;;;;;;;12.48;7.75;;;3.10;99.90;;;;;;5016853;28;20413;-78
2022/01/28 06:48:22;;;;;;;8.45;6.88;;;3.10;99.90;;;;;;5016312;28;20030;-77
2022/01/28 06:50:48;;;;;;;10.32;7.50;;;3.10;99.90;;;;;;5017881;28;20025;-78
2022/01/28 06:53:14;;;;;;;12.80;8.38;;;3.10;99.90;;;;;;5015324;28;20046;-77
2022/01/28 06:55:41;;;;;;;9.32;7.38;;;3.00;99.90;;;;;;5015973;28;20040;-77
2022/01/28 06:58:07;;;;;;;12.27;7.80;;;3.00;99.90;;;;;;5020918;28;20029;-76
2022/01/28 07:00:37;;;;;;;11.23;8.20;;;3.00;99.90;;;;;;5019996;28;20050;-77
2022/01/28 07:03:04;;;;;;;12.65;7.88;;;2.90;99.90;;;;;;5019411;28;20532;-78
2022/01/28 07:05:30;;;;;;;13.63;7.85;;;3.00;99.90;;;;;;5016790;28;20045;-77
2022/01/28 07:07:55;;;;;;;13.48;7.80;;;2.90;99.90;;;;;;5022255;28;20477;-76
2022/01/28 07:10:21;;;;;;;11.38;7.22;;;3.00;99.90;;;;;;5035044;28;20022;-75
2022/01/28 07:12:46;;;;;;;11.32;7.53;;;3.00;99.90;;;;;;5034289;28;20053;-76
2022/01/28 07:15:12;;;;;;;13.27;7.82;;;3.00;99.90;;;;;;5035125;28;20034;-76
2022/01/28 07:17:37;;;;;;;12.30;7.70;;;3.10;99.90;;;;;;5033669;28;20025;-77
2022/01/28 07:20:04;;;;;;;9.73;7.10;;;3.10;99.90;;;;;;5020252;28;20454;-78
2022/01/28 07:22:30;;;;;;;11.73;6.05;;;3.10;99.90;;;;;;5014176;28;20069;-76
2022/01/28 07:24:55;;;;;;;11.05;5.97;;;3.10;99.90;;;;;;5015308;28;20387;-77
2022/01/28 07:27:21;;;;;;;9.07;6.25;;;3.20;99.90;;;;;;5015580;28;20026;-76
2022/01/28 07:29:50;;;;;;;7.25;4.57;;;3.20;99.90;;;;;;5015433;28;20022;-78
2022/01/28 07:32:16;;;;;;;8.25;5.10;;;3.30;99.90;;;;;;5015252;28;20018;-77
2022/01/28 07:34:43;;;;;;;9.65;5.78;;;3.40;99.90;;;;;;5015919;28;20029;-77
2022/01/28 07:37:08;;;;;;;7.47;5.35;;;3.40;99.90;;;;;;5016210;28;20101;-78
2022/01/28 07:39:34;;;;;;;11.48;6.25;;;3.40;99.90;;;;;;5036427;23;20026;-72
2022/01/28 07:42:00;;;;;;;12.15;6.25;;;3.50;99.90;;;;;;5015141;28;20109;-73
2022/01/28 07:44:25;;;;;;;7.18;5.38;;;3.50;99.90;;;;;;5014001;28;20400;-73
2022/01/28 07:46:51;;;;;;;9.88;6.47;;;3.60;99.90;;;;;;5015916;28;20073;-73
2022/01/28 07:49:16;;;;;;;6.40;5.00;;;3.60;99.90;;;;;;5014994;28;20026;-74
2022/01/28 07:51:42;;;;;;;13.20;6.45;;;3.70;99.90;;;;;;5014746;28;20052;-75
2022/01/28 07:54:09;;;;;;;7.25;5.25;;;3.70;99.90;;;;;;5015264;28;20068;-73
2022/01/28 07:56:35;;;;;;;7.13;5.78;;;3.80;99.90;;;;;;5014492;28;20167;-72
2022/01/28 07:59:01;;;;;;;12.73;7.30;;;3.90;99.90;;;;;;5012835;28;20026;-72
2022/01/28 08:01:26;;;;;;;7.03;5.50;;;3.90;99.90;;;;;;5013138;28;20029;-72
2022/01/28 08:03:52;;;;;;;9.60;5.82;;;3.90;99.90;;;;;;5013149;28;20030;-73
2022/01/28 08:06:18;;;;;;;7.30;5.57;;;4.00;99.90;;;;;;5015649;28;20030;-73
2022/01/28 08:08:43;;;;;;;7.65;5.70;;;4.00;99.90;;;;;;5012661;28;20080;-74
2022/01/28 08:11:09;;;;;;;8.07;5.90;;;4.00;99.90;;;;;;5017476;28;20088;-74
2022/01/28 08:13:34;;;;;;;9.65;5.90;;;4.10;99.90;;;;;;5016822;28;20022;-72
2022/01/28 08:16:00;;;;;;;10.68;6.85;;;4.10;99.90;;;;;;5017928;28;20392;-72
2022/01/28 08:18:26;;;;;;;10.68;6.40;;;4.20;99.90;;;;;;5017476;28;20482;-72
2022/01/28 08:20:52;;;;;;;8.48;5.70;;;4.30;99.90;;;;;;5015212;28;20454;-73
2022/01/28 08:23:18;;;;;;;10.13;5.47;;;4.30;99.90;;;;;;5015490;28;20398;-72
2022/01/28 08:25:44;;;;;;;15.15;6.03;;;4.30;99.90;;;;;;5016768;28;20092;-72
2022/01/28 08:28:10;;;;;;;7.90;5.30;;;4.40;99.90;;;;;;5016698;28;20109;-73
2022/01/28 08:30:38;;;;;;;6.20;4.70;;;4.60;99.90;;;;;;5016465;28;20026;-72
2022/01/28 08:33:05;;;;;;;7.13;4.05;;;4.70;99.90;;;;;;5016525;28;20108;-74
2022/01/28 08:35:35;;;;;;;10.68;5.57;;;4.70;99.90;;;;;;5016054;28;20041;-74
2022/01/28 08:38:00;;;;;;;6.28;3.83;;;4.80;99.90;;;;;;5015924;28;20053;-73
2022/01/28 08:40:28;;;;;;;8.95;3.75;;;4.80;99.90;;;;;;5022130;28;20038;-73
2022/01/28 08:42:53;;;;;;;6.40;4.18;;;4.90;99.90;;;;;;5034849;28;20026;-72
2022/01/28 08:45:20;;;;;;;6.82;3.45;;;4.90;99.90;;;;;;5020580;28;20025;-73
2022/01/28 08:47:45;;;;;;;5.40;3.83;;;4.90;99.90;;;;;;5016832;28;20029;-73
2022/01/28 08:50:11;;;;;;;5.35;2.95;;;4.90;99.90;;;;;;5015544;28;20394;-73
2022/01/28 08:52:37;;;;;;;4.85;3.50;;;4.90;99.90;;;;;;5015025;28;20037;-75
2022/01/28 08:55:04;;;;;;;7.00;3.35;;;4.90;99.90;;;;;;5015465;28;20032;-74
2022/01/28 08:57:30;;;;;;;8.02;3.33;;;4.90;99.90;;;;;;5016223;28;20057;-73
2022/01/28 08:59:56;;;;;;;8.55;3.53;;;4.90;99.90;;;;;;5015208;28;20097;-73
2022/01/28 09:02:21;;;;;;;5.43;3.40;;;5.00;99.90;;;;;;5013954;28;20454;-73
2022/01/28 09:04:47;;;;;;;4.53;3.70;;;5.00;99.90;;;;;;5015923;28;20464;-73
2022/01/28 09:07:13;;;;;;;4.60;3.63;;;4.90;99.90;;;;;;5024065;28;20021;-72
2022/01/28 09:09:48;;;;;;;10.60;4.90;;;5.00;99.90;;;;;;5032603;28;20026;-72
2022/01/28 09:14:58;;;;;;;6.90;3.60;;;5.10;99.90;;;;;;5025054;28;20033;-73
2022/01/28 09:17:25;;;;;;;9.63;3.88;;;5.20;99.90;;;;;;5015504;28;20026;-73
2022/01/28 09:19:51;;;;;;;5.05;3.33;;;5.20;99.90;;;;;;5015170;28;20037;-72
2022/01/28 09:22:16;;;;;;;6.95;4.10;;;5.30;99.90;;;;;;5014027;28;20029;-72
2022/01/28 09:24:42;;;;;;;4.07;3.28;;;5.30;99.90;;;;;;5014655;28;20556;-73
2022/01/28 09:27:08;;;;;;;5.03;3.80;;;5.40;99.90;;;;;;5014673;28;20429;-74
2022/01/28 09:29:34;;;;;;;7.35;3.88;;;5.40;99.90;;;;;;5015829;28;20020;-73
2022/01/28 09:32:00;;;;;;;7.35;3.03;;;5.40;99.90;;;;;;5014719;28;20434;-73
2022/01/28 09:34:27;;;;;;;8.05;3.60;;;5.40;99.90;;;;;;5013331;28;20113;-74
2022/01/28 09:36:53;;;;;;;5.60;3.25;;;5.40;99.90;;;;;;5014781;28;20144;-73
2022/01/28 09:39:20;;;;;;;7.63;3.88;;;5.40;99.90;;;;;;5014699;28;20064;-72
2022/01/28 09:41:47;;;;;;;9.88;3.55;;;5.60;99.90;;;;;;5014209;28;20045;-74
2022/01/28 09:44:15;;;;;;;8.10;2.97;;;5.70;99.90;;;;;;5014491;28;20517;-73
2022/01/28 09:46:42;;;;;;;8.40;4.65;;;5.70;99.90;;;;;;5014360;28;20028;-73
2022/01/28 09:49:07;;;;;;;7.50;3.00;;;5.90;99.90;;;;;;5012829;28;20044;-73
2022/01/28 09:51:33;;;;;;;4.47;2.78;;;5.90;99.90;;;;;;5014355;28;20394;-72
2022/01/28 09:53:59;;;;;;;7.95;2.83;;;5.90;99.90;;;;;;5014691;28;20065;-74
2022/01/28 09:56:24;;;;;;;6.63;2.30;;;6.00;99.90;;;;;;5015122;28;20048;-73
2022/01/28 09:58:50;;;;;;;5.70;2.80;;;6.10;99.90;;;;;;5013566;28;20022;-73
2022/01/28 10:01:16;;;;;;;4.97;2.40;;;6.20;99.90;;;;;;5015207;28;20026;-73
2022/01/28 10:03:41;;;;;;;6.00;2.50;;;6.20;99.90;;;;;;5017679;28;20509;-74
2022/01/28 10:06:07;;;;;;;7.55;2.72;;;6.20;99.90;;;;;;5020244;28;20032;-72
2022/01/28 10:08:33;;;;;;;5.53;1.92;;;6.30;99.90;;;;;;5013616;28;20604;-73
2022/01/28 10:11:03;;;;;;;3.75;2.03;;;6.30;99.90;;;;;;5014462;28;20022;-72
2022/01/28 10:13:40;;;;;;;6.20;2.30;;;6.30;99.90;;;;;;5014211;28;20030;-73
2022/01/28 10:16:13;;;;;;;6.88;2.08;;;6.30;99.90;;;;;;5014446;28;20033;-72
2022/01/28 10:18:39;;;;;;;9.60;2.35;;;6.10;99.90;;;;;;5014273;28;20034;-73
2022/01/28 10:21:29;;;;;;;4.80;2.70;;;6.20;99.90;;;;;;5019137;28;20156;-73
2022/01/28 10:24:15;;;;;;;4.30;1.87;;;6.20;99.90;;;;;;5020963;28;20036;-73
2022/01/28 10:27:05;;;;;;;6.07;2.50;;;6.30;99.90;;;;;;5020528;28;20054;-72
2022/01/28 10:29:33;;;;;;;5.00;1.80;;;6.50;99.90;;;;;;5016786;28;20105;-74
2022/01/28 10:32:04;;;;;;;5.07;2.15;;;6.50;99.90;;;;;;5019934;28;20265;-73
2022/01/28 10:34:40;;;;;;;8.05;1.95;;;6.40;99.90;;;;;;5025365;28;20056;-73
2022/01/28 10:37:24;;;;;;;5.70;2.00;;;6.40;99.90;;;;;;5025923;28;20026;-72
2022/01/28 10:39:51;;;;;;;4.72;1.80;;;6.30;99.90;;;;;;5021878;28;20084;-73
2022/01/28 10:42:39;;;;;;;10.35;2.53;;;6.30;99.90;;;;;;5015575;28;20129;-73
2022/01/28 10:45:10;;;;;;;8.18;2.33;;;6.40;99.90;;;;;;5021127;28;20045;-72
2022/01/28 10:47:40;;;;;;;6.03;2.28;;;6.50;99.90;;;;;;5021936;28;20021;-73
2022/01/28 10:50:22;;;;;;;6.30;2.13;;;6.50;99.90;;;;;;5015020;28;20478;-73
2022/01/28 10:53:14;;;;;;;5.38;2.25;;;6.60;99.90;;;;;;5013671;28;20026;-73
2022/01/28 10:55:40;;;;;;;;;;;6.60;99.90;;;;;;5014178;28;20030;-73
2022/01/28 10:58:18;;;;;;;8.60;3.40;;;6.60;99.90;;;;;;5013918;28;19912;-73
2022/01/28 11:00:46;;;;;;;5.50;1.75;;;6.80;99.90;;;;;;5013513;28;20204;-73
2022/01/28 11:03:13;;;;;;;3.47;1.75;;;6.80;99.90;;;;;;5013975;28;20075;-73
2022/01/28 11:05:40;;;;;;;4.97;1.55;;;6.90;99.90;;;;;;5014471;28;20037;-72
2022/01/28 11:08:08;;;;;;;6.88;1.58;;;6.90;99.90;;;;;;5014267;28;20050;-74
2022/01/28 11:10:34;;;;;;;13.50;3.72;;;6.90;99.90;;;;;;5014100;28;20029;-73
2022/01/28 11:13:01;;;;;;;6.00;1.50;;;6.90;99.90;;;;;;5013362;28;20068;-73
2022/01/28 11:15:28;;;;;;;7.05;1.45;;;6.90;99.90;;;;;;5012754;28;20436;-73
2022/01/28 11:17:55;;;;;;;3.10;1.38;;;6.90;99.90;;;;;;5014012;28;20025;-72
2022/01/28 11:20:30;;;;;;;2.80;2.10;;;6.90;99.90;;;;;;5012913;28;20022;-74
2022/01/28 11:23:19;;;;;;;5.75;1.50;;;6.80;99.90;;;;;;5013276;28;20112;-72
2022/01/28 11:25:50;;;;;;;6.60;1.60;;;6.80;99.90;;;;;;5025185;28;20049;-73
2022/01/28 11:28:16;;;;;;;4.82;2.15;;;6.80;99.90;;;;;;5025325;28;20018;-72
2022/01/28 11:30:47;;;;;;;3.70;1.90;;;7.00;99.90;;;;;;5013275;28;20104;-72
2022/01/28 11:33:14;;;;;;;4.05;1.50;;;7.10;99.90;;;;;;5013994;28;20109;-72
2022/01/28 11:35:49;;;;;;;2.78;1.40;;;7.00;99.90;;;;;;5014313;28;20052;-74
2022/01/28 11:38:30;;;;;;;2.72;1.80;;;7.10;99.90;;;;;;5013881;28;20426;-73
2022/01/28 11:41:19;;;;;;;5.72;1.80;;;7.10;99.90;;;;;;5013699;28;20045;-74
2022/01/28 11:43:49;;;;;;;4.20;1.45;;;7.10;99.90;;;;;;5010095;28;20034;-74
2022/01/28 11:46:26;;;;;;;5.57;1.58;;;7.20;99.90;;;;;;5017629;28;20053;-72
2022/01/28 11:48:52;;;;;;;8.75;2.30;;;7.00;99.90;;;;;;5017982;28;20100;-72
2022/01/28 11:51:36;;;;;;;4.90;2.15;;;7.00;99.90;;;;;;5017633;28;20029;-73
2022/01/28 11:54:04;;;;;;;4.47;2.20;;;6.90;99.90;;;;;;5017515;28;20026;-73
2022/01/28 11:56:31;;;;;;;5.38;1.52;;;7.00;99.90;;;;;;5017721;28;20470;-73
2022/01/28 11:58:58;;;;;;;3.30;1.92;;;6.90;99.90;;;;;;5017563;28;20053;-74
2022/01/28 12:01:49;;;;;;;3.95;1.95;;;6.90;99.90;;;;;;5029734;28;20034;-71
2022/01/28 12:04:24;;;;;;;;;;;6.80;99.90;;;;;;5030320;28;20026;-72
2022/01/28 12:07:02;;;;;;;5.35;2.03;;;6.70;99.90;;;;;;5031536;28;19908;-73
2022/01/28 12:09:35;;;;;;;3.75;2.38;;;6.70;99.90;;;;;;5029302;28;20045;-74
2022/01/28 12:12:02;;;;;;;6.05;1.90;;;6.60;99.90;;;;;;5022531;28;20026;-72
2022/01/28 12:14:50;;;;;;;6.35;2.30;;;6.70;99.90;;;;;;5017622;28;20049;-73
2022/01/28 12:17:34;;;;;;;6.95;2.08;;;6.70;99.90;;;;;;5017924;28;20026;-72
2022/01/28 12:20:34;;;;;;;10.48;2.88;;;6.90;99.90;;;;;;5017303;28;20056;-72
2022/01/28 12:22:59;;;;;;;5.82;2.03;;;7.00;99.90;;;;;;5029831;28;20018;-74
2022/01/28 12:25:43;;;;;;;3.83;2.10;;;6.90;99.90;;;;;;5029037;28;20082;-72
2022/01/28 12:28:21;;;;;;;4.38;2.10;;;6.90;99.90;;;;;;5024334;28;20073;-72
2022/01/28 12:30:51;;;;;;;4.45;2.10;;;7.00;99.90;;;;;;5019726;28;20065;-73
2022/01/28 12:33:22;;;;;;;6.53;2.92;;;7.00;99.90;;;;;;5016996;28;20567;-74
2022/01/28 12:35:50;;;;;;;5.22;2.35;;;6.90;99.90;;;;;;5016233;28;20061;-73
2022/01/28 12:38:20;;;;;;;7.13;3.58;;;6.80;99.90;;;;;;5016154;28;20137;-73
2022/01/28 12:40:49;;;;;;;5.10;2.67;;;6.90;99.90;;;;;;5016236;28;20044;-73
2022/01/28 12:43:23;;;;;;;7.00;3.67;;;6.90;99.90;;;;;;5016999;28;20032;-73
2022/01/28 12:46:05;;;;;;;7.40;3.45;;;7.10;99.90;;;;;;5015960;28;20029;-72
2022/01/28 12:48:31;;;;;;;9.27;2.50;;;7.20;99.90;;;;;;5015785;28;20028;-73
2022/01/28 12:50:58;;;;;;;5.80;2.78;;;7.10;99.90;;;;;;5014772;28;20022;-73
2022/01/28 12:53:35;;;;;;;9.43;3.42;;;7.00;99.90;;;;;;5015984;28;20049;-72
2022/01/28 12:56:04;;;;;;;8.77;2.47;;;7.00;99.90;;;;;;5016741;28;20029;-73
2022/01/28 12:58:50;;;;;;;7.25;3.78;;;6.70;99.90;;;;;;5016215;28;20017;-73
2022/01/28 13:01:18;;;;;;;4.10;2.88;;;6.70;99.90;;;;;;5015480;28;20497;-72
2022/01/28 13:04:01;;;;;;;8.02;3.58;;;6.50;99.90;;;;;;5015729;28;20105;-72
2022/01/28 13:08:59;;;;;;;;;;;6.40;99.90;;;;;;5016702;28;20133;-72
2022/01/28 13:11:25;;;;;;;5.28;3.35;;;6.50;99.90;;;;;;5015379;28;19984;-73
2022/01/28 13:13:54;;;;;;;5.88;3.63;;;6.70;99.90;;;;;;5015656;28;20045;-72
2022/01/28 13:16:37;;;;;;;6.97;3.70;;;6.90;99.90;;;;;;5014610;28;20558;-73
2022/01/28 13:19:06;;;;;;;9.63;3.83;;;7.10;99.90;;;;;;5017871;28;20037;-72
2022/01/28 13:21:33;;;;;;;6.43;4.72;;;6.90;99.90;;;;;;5019571;28;20029;-72
2022/01/28 13:24:15;;;;;;;13.55;5.68;;;6.60;99.90;;;;;;5021884;28;20076;-73
2022/01/28 13:27:03;;;;;;;7.35;4.53;;;6.50;99.90;;;;;;5017116;28;20026;-72
2022/01/28 13:29:31;;;;;;;7.07;4.90;;;6.30;99.90;;;;;;5015622;28;20026;-72
2022/01/28 13:31:57;;;;;;;10.45;5.20;;;6.30;99.90;;;;;;5016672;28;20025;-73
2022/01/28 13:34:24;;;;;;;7.03;3.90;;;6.30;99.90;;;;;;5015436;28;20036;-73
2022/01/28 13:36:53;;;;;;;8.43;4.95;;;6.40;99.90;;;;;;5014815;28;20026;-73
2022/01/28 13:39:21;;;;;;;4.07;3.15;;;6.30;99.90;;;;;;5015832;28;20030;-73
2022/01/28 13:41:51;;;;;;;8.77;5.20;;;6.10;99.90;;;;;;5068030;23;20045;-79
2022/01/28 13:44:27;;;;;;;8.40;5.30;;;6.10;99.90;;;;;;5044499;28;20052;-78
2022/01/28 13:47:01;;;;;;;7.05;5.80;;;6.10;99.90;;;;;;5042769;28;20021;-78
2022/01/28 13:49:33;;;;;;;8.07;4.88;;;6.10;99.90;;;;;;5046931;28;20056;-78
2022/01/28 13:52:07;;;;;;;8.27;6.20;;;6.20;99.90;;;;;;5043681;28;20028;-78
2022/01/28 13:54:34;;;;;;;6.82;5.15;;;6.30;99.90;;;;;;5042395;28;20040;-77
2022/01/28 13:57:02;;;;;;;8.13;4.80;;;6.20;99.90;;;;;;5042152;28;20503;-77
2022/01/28 13:59:31;;;;;;;8.82;5.30;;;6.20;99.90;;;;;;5039240;28;20034;-79
2022/01/28 14:01:59;;;;;;;8.68;5.72;;;6.20;99.90;;;;;;5041837;28;20389;-77
2022/01/28 14:04:27;;;;;;;9.77;4.78;;;6.20;99.90;;;;;;5037641;28;20373;-78
2022/01/28 14:07:09;;;;;;;7.28;4.90;;;6.20;99.90;;;;;;5039497;28;20077;-77
2022/01/28 14:09:43;;;;;;;6.85;5.47;;;6.20;99.90;;;;;;5038532;28;20520;-78
2022/01/28 14:12:12;;;;;;;9.80;5.47;;;6.10;99.90;;;;;;5040086;28;20085;-76
2022/01/28 14:14:45;;;;;;;7.82;6.03;;;6.10;99.90;;;;;;5038592;28;20025;-78
2022/01/28 14:17:11;;;;;;;8.35;5.70;;;6.20;99.90;;;;;;5036704;28;20411;-77
2022/01/28 14:19:39;;;;;;;9.48;5.18;;;6.20;99.90;;;;;;5035749;28;20083;-76
2022/01/28 14:22:08;;;;;;;6.20;4.53;;;6.10;99.90;;;;;;5036816;28;20032;-77
2022/01/28 14:24:36;;;;;;;7.18;4.68;;;6.10;99.90;;;;;;5035415;28;20501;-77